Time;durP1;ratioP1;P1;durP2;ratioP2;P2;SDS_P1;SDS_P2;PMS_P1;PMS_P2;Temp;Humidity;BMP_temperature;BMP_pressure;BME280_temperature;BME280_humidity;BME280_pressure;Samples;Min_cycle;Max_cycle;Signal;HPM_P1;HPM_P2
2023/10/08 00:01:13;;;;;;;7.95;2.63;;;17.00;79.20;;;;;;5032003;28;20032;-74
2023/10/08 00:03:40;;;;;;;6.50;2.80;;;16.90;79.30;;;;;;5030714;28;20124;-75
2023/10/08 00:06:06;;;;;;;8.85;2.80;;;16.80;79.80;;;;;;5031979;28;20021;-74
2023/10/08 00:08:33;;;;;;;9.38;2.75;;;16.80;80.10;;;;;;5031770;28;20405;-75
2023/10/08 00:11:05;;;;;;;4.28;2.25;;;16.70;80.30;;;;;;5032074;28;20033;-74
2023/10/08 00:13:39;;;;;;;6.32;2.20;;;16.60;80.60;;;;;;5032147;28;20036;-75
2023/10/08 00:16:09;;;;;;;5.07;1.77;;;16.60;81.60;;;;;;5031916;28;20030;-74
2023/10/08 00:18:35;;;;;;;5.90;1.60;;;16.50;81.10;;;;;;5031749;28;20056;-74
2023/10/08 00:23:41;;;;;;;9.18;2.55;;;16.40;81.80;;;;;;5031865;28;20116;-74
2023/10/08 00:26:07;;;;;;;6.03;2.30;;;16.30;82.30;;;;;;5031728;28;20028;-75
2023/10/08 00:28:33;;;;;;;4.43;1.75;;;16.20;82.70;;;;;;5031684;28;20410;-75
2023/10/08 00:31:11;;;;;;;5.13;2.20;;;16.10;82.90;;;;;;5031656;28;20104;-74
2023/10/08 00:33:37;;;;;;;4.00;1.67;;;16.10;83.20;;;;;;5031753;28;20033;-74
2023/10/08 00:36:17;;;;;;;7.05;2.95;;;16.00;83.50;;;;;;5031456;28;20522;-75
2023/10/08 00:38:44;;;;;;;9.07;2.47;;;16.00;83.60;;;;;;5031444;28;20504;-75
2023/10/08 00:41:19;;;;;;;8.65;2.85;;;16.00;83.80;;;;;;5029938;28;20032;-74
2023/10/08 00:43:45;;;;;;;5.82;2.28;;;15.90;84.10;;;;;;5031370;28;20033;-74
2023/10/08 00:46:47;;;;;;;6.93;2.85;;;15.90;84.50;;;;;;5031131;28;20018;-75
2023/10/08 00:49:24;;;;;;;6.70;2.60;;;15.80;84.80;;;;;;5030751;28;20033;-74
2023/10/08 00:54:32;;;;;;;6.00;1.77;;;15.80;85.10;;;;;;5031324;28;20034;-75
2023/10/08 00:57:03;;;;;;;8.00;2.50;;;15.80;85.20;;;;;;5031226;28;20026;-74
2023/10/08 00:59:37;;;;;;;5.68;2.50;;;15.80;85.50;;;;;;5031060;28;20029;-74
2023/10/08 01:02:06;;;;;;;9.15;2.28;;;15.80;85.80;;;;;;5030939;28;20038;-75
2023/10/08 01:04:34;;;;;;;5.88;2.05;;;15.80;86.10;;;;;;5029631;28;20472;-75
2023/10/08 01:07:10;;;;;;;5.82;2.20;;;15.80;86.20;;;;;;5030927;28;20168;-74
2023/10/08 01:09:37;;;;;;;5.65;2.30;;;15.80;86.60;;;;;;5030129;28;20539;-75
2023/10/08 01:12:15;;;;;;;7.05;2.30;;;15.70;86.90;;;;;;5030767;28;20033;-74
2023/10/08 01:14:46;;;;;;;5.30;2.30;;;15.70;87.20;;;;;;5030809;28;20390;-75
2023/10/08 01:17:16;;;;;;;5.93;2.20;;;15.60;87.60;;;;;;5030661;28;20041;-74
2023/10/08 01:19:50;;;;;;;4.93;1.98;;;15.60;87.90;;;;;;5029337;28;20068;-74
2023/10/08 01:22:18;;;;;;;5.25;2.30;;;15.60;88.30;;;;;;5030559;28;20033;-74
2023/10/08 01:24:48;;;;;;;6.82;2.85;;;15.60;88.50;;;;;;5029135;28;20045;-75
2023/10/08 01:27:23;;;;;;;5.85;2.08;;;15.60;88.40;;;;;;5030514;28;20112;-74
2023/10/08 01:29:50;;;;;;;6.32;2.28;;;15.60;88.70;;;;;;5030385;28;20060;-75
2023/10/08 01:32:17;;;;;;;10.57;2.92;;;15.60;89.00;;;;;;5029113;28;20410;-75
2023/10/08 01:34:46;;;;;;;7.13;2.53;;;15.60;88.90;;;;;;5030279;28;20036;-75
2023/10/08 01:37:19;;;;;;;8.10;2.72;;;15.70;88.30;;;;;;5030333;28;20029;-75
2023/10/08 01:39:50;;;;;;;5.07;1.88;;;15.70;87.90;;;;;;5030402;28;20021;-75
2023/10/08 01:42:17;;;;;;;6.90;2.30;;;15.70;87.70;;;;;;5030352;28;20041;-75
2023/10/08 01:44:48;;;;;;;6.40;2.08;;;15.80;87.50;;;;;;5030200;28;20117;-74
2023/10/08 01:47:16;;;;;;;16.60;2.08;;;15.90;87.30;;;;;;5028979;28;20039;-75
2023/10/08 01:49:49;;;;;;;7.72;2.25;;;15.90;86.90;;;;;;5030372;28;20064;-74
2023/10/08 01:52:18;;;;;;;7.18;2.13;;;15.90;86.60;;;;;;5030051;28;20029;-74
2023/10/08 01:54:44;;;;;;;8.52;2.60;;;16.00;86.10;;;;;;5029953;28;20116;-75
2023/10/08 01:57:12;;;;;;;9.95;2.53;;;16.00;85.80;;;;;;5028544;28;20114;-74
2023/10/08 01:59:38;;;;;;;8.25;2.88;;;16.00;85.90;;;;;;5030029;28;20032;-74
2023/10/08 02:02:05;;;;;;;5.93;2.40;;;16.00;85.90;;;;;;5029918;28;20033;-74
2023/10/08 02:04:35;;;;;;;24.73;3.05;;;16.00;85.90;;;;;;5029898;28;20456;-75
2023/10/08 02:07:07;;;;;;;8.35;2.38;;;16.00;86.00;;;;;;5029770;28;20029;-75
2023/10/08 02:09:34;;;;;;;9.77;2.40;;;15.90;86.00;;;;;;5030011;28;20032;-74
2023/10/08 02:11:59;;;;;;;9.93;2.35;;;15.90;86.00;;;;;;5029796;28;20060;-73
2023/10/08 02:14:25;;;;;;;8.93;2.78;;;15.90;86.00;;;;;;5029757;28;20470;-75
2023/10/08 02:16:56;;;;;;;11.15;2.83;;;15.90;86.20;;;;;;5028067;28;20041;-74
2023/10/08 02:19:26;;;;;;;11.55;2.88;;;16.00;86.40;;;;;;5029486;28;20040;-75
2023/10/08 02:21:54;;;;;;;11.65;2.50;;;16.00;86.40;;;;;;5029029;28;20037;-75
2023/10/08 02:24:21;;;;;;;10.13;2.75;;;15.90;86.50;;;;;;5029608;28;20013;-75
2023/10/08 02:26:47;;;;;;;9.57;2.70;;;15.90;86.50;;;;;;5029406;28;20036;-75
2023/10/08 02:29:13;;;;;;;10.68;2.85;;;15.90;86.60;;;;;;5029274;28;20025;-73
2023/10/08 02:31:40;;;;;;;8.40;2.72;;;15.90;86.70;;;;;;5029353;28;20022;-74
2023/10/08 02:34:12;;;;;;;6.55;2.40;;;15.90;86.80;;;;;;5029470;28;20026;-74
2023/10/08 02:36:40;;;;;;;7.18;2.13;;;15.90;87.10;;;;;;5029199;28;20028;-75
2023/10/08 02:39:13;;;;;;;10.57;2.38;;;15.90;87.30;;;;;;5029304;28;20490;-75
2023/10/08 02:41:45;;;;;;;7.95;2.38;;;16.00;87.40;;;;;;5029219;28;20080;-74
2023/10/08 02:44:13;;;;;;;8.77;2.58;;;16.00;87.70;;;;;;5027990;28;20029;-74
2023/10/08 02:46:47;;;;;;;8.40;2.33;;;15.90;87.80;;;;;;5029099;28;20110;-74
2023/10/08 02:49:16;;;;;;;8.07;2.72;;;16.00;87.90;;;;;;5029131;28;20025;-74
2023/10/08 02:51:44;;;;;;;9.70;2.30;;;15.90;88.00;;;;;;5029587;28;20031;-75
2023/10/08 02:54:22;;;;;;;7.72;2.47;;;15.90;88.40;;;;;;5029262;28;20025;-74
2023/10/08 02:56:55;;;;;;;12.82;2.95;;;15.90;88.60;;;;;;5029139;28;20036;-75
2023/10/08 02:59:22;;;;;;;7.15;2.67;;;15.90;88.90;;;;;;5027562;28;20379;-75
2023/10/08 03:01:57;;;;;;;11.48;2.65;;;15.90;89.90;;;;;;5028803;28;20044;-74
2023/10/08 03:04:24;;;;;;;10.35;2.35;;;15.90;89.60;;;;;;5028935;28;20155;-75
2023/10/08 03:06:50;;;;;;;8.30;2.50;;;15.90;90.00;;;;;;5028934;28;20397;-75
2023/10/08 03:09:20;;;;;;;6.28;2.78;;;15.90;90.10;;;;;;5028712;28;20033;-74
2023/10/08 03:11:48;;;;;;;8.00;2.88;;;15.90;90.20;;;;;;5027578;28;20421;-74
2023/10/08 03:14:26;;;;;;;9.23;2.33;;;15.90;90.20;;;;;;5028841;28;20071;-75
2023/10/08 03:16:53;;;;;;;6.25;2.67;;;15.90;90.20;;;;;;5027417;28;20139;-75
2023/10/08 03:19:21;;;;;;;7.53;2.33;;;15.90;90.20;;;;;;5027350;28;20029;-75
2023/10/08 03:21:51;;;;;;;8.23;2.92;;;15.90;90.30;;;;;;5028697;28;20568;-74
2023/10/08 03:24:30;;;;;;;11.88;3.50;;;15.90;90.40;;;;;;5027496;28;20595;-74
2023/10/08 03:27:06;;;;;;;10.48;2.28;;;16.00;90.30;;;;;;5028815;28;20021;-75
2023/10/08 03:29:42;;;;;;;10.80;3.13;;;16.00;90.40;;;;;;5028770;28;20107;-75
2023/10/08 03:32:17;;;;;;;9.05;2.80;;;16.10;90.40;;;;;;5028715;28;20060;-75
2023/10/08 03:34:54;;;;;;;10.95;2.72;;;16.10;90.50;;;;;;5030615;28;20068;-75
2023/10/08 03:37:21;;;;;;;;;;;16.10;90.60;;;;;;5033156;28;20079;-74
2023/10/08 03:39:50;;;;;;;12.82;2.67;;;16.10;90.60;;;;;;5032604;28;20349;-75
2023/10/08 03:42:23;;;;;;;10.90;2.33;;;16.10;90.70;;;;;;5032537;28;20041;-75
2023/10/08 03:44:52;;;;;;;11.95;3.13;;;16.10;90.80;;;;;;5031906;28;20041;-74
2023/10/08 03:47:26;;;;;;;7.55;2.90;;;16.20;91.00;;;;;;5032461;28;20065;-75
2023/10/08 03:49:52;;;;;;;9.23;1.95;;;16.20;91.10;;;;;;5031081;28;20056;-74
2023/10/08 03:52:23;;;;;;;16.73;2.45;;;16.30;91.20;;;;;;5032451;28;20506;-75
2023/10/08 03:54:59;;;;;;;10.05;2.70;;;16.30;91.20;;;;;;5032215;28;20108;-74
2023/10/08 03:57:29;;;;;;;;;;;16.40;91.30;;;;;;5031336;28;20398;-75
2023/10/08 03:59:58;;;;;;;14.70;3.67;;;16.30;91.30;;;;;;5032062;28;19920;-74
2023/10/08 04:02:39;;;;;;;11.20;2.85;;;16.40;91.40;;;;;;5032038;28;20037;-75
2023/10/08 04:05:19;;;;;;;17.52;2.75;;;16.40;91.40;;;;;;5032281;28;20025;-74
2023/10/08 04:13:08;;;;;;;8.00;2.53;;;16.60;91.10;;;;;;5032149;28;20029;-74
2023/10/08 04:15:40;;;;;;;12.18;2.83;;;16.70;91.20;;;;;;5031888;28;20498;-75
2023/10/08 04:18:10;;;;;;;7.88;2.78;;;16.70;91.10;;;;;;5031574;28;20501;-74
2023/10/08 04:20:38;;;;;;;16.95;2.85;;;16.80;91.00;;;;;;5030353;28;20413;-74
2023/10/08 04:23:13;;;;;;;9.70;2.70;;;16.80;90.90;;;;;;5030370;28;20045;-75
2023/10/08 04:25:41;;;;;;;14.00;3.13;;;16.80;90.90;;;;;;5032201;28;20071;-75
2023/10/08 04:28:13;;;;;;;9.38;2.47;;;16.80;90.90;;;;;;5030383;28;20028;-74
2023/10/08 04:30:41;;;;;;;13.68;2.22;;;16.70;90.90;;;;;;5031647;28;20018;-74
2023/10/08 04:33:11;;;;;;;10.57;2.38;;;16.70;91.00;;;;;;5031521;28;20052;-75
2023/10/08 04:36:01;;;;;;;7.00;2.63;;;16.70;90.90;;;;;;5029199;28;20021;-74
2023/10/08 04:38:36;;;;;;;9.60;2.60;;;16.80;90.80;;;;;;5030841;28;20041;-74
2023/10/08 04:41:08;;;;;;;10.38;2.45;;;16.80;90.80;;;;;;5031376;28;20026;-74
2023/10/08 04:43:37;;;;;;;8.30;2.72;;;16.80;90.80;;;;;;5031300;28;20036;-75
2023/10/08 04:46:21;;;;;;;8.90;2.25;;;16.90;90.80;;;;;;5031035;28;20064;-74
2023/10/08 04:48:49;;;;;;;6.22;2.40;;;16.90;90.80;;;;;;5031198;28;20035;-75
2023/10/08 04:51:17;;;;;;;10.30;2.83;;;16.90;90.80;;;;;;5031219;28;20506;-74
2023/10/08 04:53:45;;;;;;;15.88;2.50;;;16.90;90.80;;;;;;5030123;28;20494;-74
2023/10/08 04:56:17;;;;;;;14.88;3.08;;;17.00;90.80;;;;;;5031180;28;20025;-75
2023/10/08 04:58:47;;;;;;;12.15;3.30;;;17.00;90.50;;;;;;5030956;28;20461;-74
2023/10/08 05:01:17;;;;;;;8.32;2.20;;;17.00;90.60;;;;;;5036162;28;20061;-74
2023/10/08 05:09:11;;;;;;;10.05;2.30;;;17.10;90.30;;;;;;5030951;28;20116;-75
2023/10/08 05:22:43;;;;;;;7.95;2.65;;;17.40;90.00;;;;;;5030973;28;20123;-75
2023/10/08 05:49:02;;;;;;;16.42;2.85;;;17.30;90.40;;;;;;5030162;28;20456;-75
2023/10/08 05:52:07;;;;;;;11.05;2.58;;;17.40;90.50;;;;;;5029972;28;20052;-74
2023/10/08 05:59:52;;;;;;;10.52;2.50;;;17.50;90.60;;;;;;5030101;28;20033;-75
2023/10/08 06:13:13;;;;;;;7.03;2.28;;;17.50;90.90;;;;;;5029631;28;20029;-75
2023/10/08 06:18:25;;;;;;;8.50;2.13;;;17.60;90.90;;;;;;5029299;28;20053;-75
2023/10/08 06:20:58;;;;;;;12.65;2.45;;;17.60;90.90;;;;;;5029414;28;20474;-75
2023/10/08 06:23:25;;;;;;;8.45;2.70;;;17.60;90.90;;;;;;5029269;28;20044;-75
2023/10/08 06:25:58;;;;;;;9.43;2.50;;;17.60;91.00;;;;;;5029067;28;20026;-74
2023/10/08 06:28:26;;;;;;;9.10;2.38;;;17.70;90.90;;;;;;5029574;28;20081;-75
2023/10/08 06:30:53;;;;;;;11.68;2.85;;;17.70;90.70;;;;;;5029484;28;20017;-75
2023/10/08 06:33:20;;;;;;;8.35;2.67;;;17.80;90.60;;;;;;5029483;28;20039;-75
2023/10/08 06:36:13;;;;;;;9.98;2.53;;;17.80;90.40;;;;;;5029323;28;20030;-74
2023/10/08 06:38:48;;;;;;;16.45;2.60;;;17.90;90.30;;;;;;5028967;28;20032;-75
2023/10/08 06:41:17;;;;;;;6.28;2.60;;;18.00;90.20;;;;;;5029123;28;20045;-75
2023/10/08 06:43:49;;;;;;;11.48;2.83;;;18.00;90.20;;;;;;5029224;28;20033;-75
2023/10/08 06:46:22;;;;;;;8.48;2.15;;;18.00;90.10;;;;;;5027771;28;20033;-75
2023/10/08 06:48:49;;;;;;;11.55;2.60;;;18.10;90.20;;;;;;5028870;28;20088;-76
2023/10/08 06:51:17;;;;;;;11.52;2.28;;;18.30;90.10;;;;;;5028900;28;20025;-75
2023/10/08 06:53:47;;;;;;;15.45;2.80;;;18.70;89.60;;;;;;5027711;28;20389;-76
2023/10/08 06:56:15;;;;;;;7.78;3.25;;;19.20;88.20;;;;;;5029103;28;20780;-75
2023/10/08 06:58:46;;;;;;;14.60;2.75;;;19.60;86.70;;;;;;5029224;28;20025;-75
2023/10/08 07:01:13;;;;;;;10.77;2.47;;;20.00;85.40;;;;;;5027407;28;20026;-75
2023/10/08 07:03:38;;;;;;;15.25;3.30;;;20.30;84.70;;;;;;5028826;28;20030;-75
2023/10/08 07:06:16;;;;;;;12.25;3.17;;;20.40;83.40;;;;;;5028713;28;20465;-75
2023/10/08 07:08:46;;;;;;;11.90;2.70;;;20.50;82.90;;;;;;5028596;28;20029;-75
2023/10/08 07:11:12;;;;;;;10.93;2.95;;;20.40;82.60;;;;;;5028606;28;20029;-77
2023/10/08 07:13:40;;;;;;;10.63;2.38;;;20.50;82.70;;;;;;5027372;28;20034;-75
2023/10/08 07:16:06;;;;;;;6.60;2.42;;;20.50;82.70;;;;;;5028708;28;20060;-75
2023/10/08 07:18:33;;;;;;;7.93;2.72;;;20.50;82.70;;;;;;5028451;28;20820;-75
2023/10/08 07:21:11;;;;;;;10.63;3.05;;;20.50;82.30;;;;;;5028749;28;20030;-75
2023/10/08 07:23:53;;;;;;;22.60;3.70;;;20.50;82.90;;;;;;5028464;28;20044;-75
2023/10/08 07:26:23;;;;;;;15.30;3.28;;;20.60;82.90;;;;;;5028617;28;20025;-75
2023/10/08 07:28:51;;;;;;;8.23;3.00;;;20.80;81.20;;;;;;5028472;28;20025;-73
2023/10/08 07:31:21;;;;;;;9.27;2.33;;;20.80;81.10;;;;;;5028517;28;20029;-74
2023/10/08 07:33:55;;;;;;;15.90;3.05;;;21.00;81.50;;;;;;5028451;28;20036;-73
2023/10/08 07:36:24;;;;;;;11.50;2.72;;;21.10;81.40;;;;;;5027317;28;20437;-73
2023/10/08 07:38:52;;;;;;;9.90;2.28;;;21.10;81.40;;;;;;5028329;28;20029;-74
2023/10/08 07:41:20;;;;;;;16.08;2.67;;;21.20;80.30;;;;;;5028299;28;20024;-72
2023/10/08 07:43:55;;;;;;;7.82;2.10;;;21.20;80.10;;;;;;5028366;28;20037;-72
2023/10/08 07:46:26;;;;;;;14.30;2.97;;;21.20;79.90;;;;;;5028464;28;20394;-72
2023/10/08 07:48:52;;;;;;;5.10;2.25;;;21.20;79.70;;;;;;5028333;28;20025;-72
2023/10/08 07:51:22;;;;;;;7.38;2.75;;;21.40;79.80;;;;;;5028206;28;20454;-74
2023/10/08 07:53:48;;;;;;;8.93;2.10;;;21.60;79.00;;;;;;5026969;28;20212;-73
2023/10/08 07:56:14;;;;;;;5.20;2.03;;;21.80;78.50;;;;;;5028093;28;20037;-73
2023/10/08 07:58:40;;;;;;;13.02;2.55;;;21.90;78.50;;;;;;5028097;28;20490;-75
2023/10/08 08:01:08;;;;;;;9.15;2.38;;;22.10;78.50;;;;;;5028116;28;20105;-76
2023/10/08 08:03:36;;;;;;;6.63;2.05;;;22.30;76.90;;;;;;5028236;28;20152;-75
2023/10/08 08:06:10;;;;;;;7.03;2.38;;;22.30;76.40;;;;;;5028032;28;20485;-75
2023/10/08 08:08:38;;;;;;;7.63;2.10;;;22.30;76.30;;;;;;5028240;28;20109;-74
2023/10/08 08:11:11;;;;;;;8.13;2.28;;;22.40;76.70;;;;;;5028033;28;20513;-74
2023/10/08 08:13:39;;;;;;;5.85;2.35;;;22.60;76.40;;;;;;5028086;28;20104;-75
2023/10/08 08:16:16;;;;;;;7.30;2.70;;;23.00;75.00;;;;;;5027983;28;20026;-74
2023/10/08 08:18:51;;;;;;;9.45;1.98;;;23.30;74.00;;;;;;5027946;28;20430;-75
2023/10/08 08:21:19;;;;;;;10.40;2.08;;;23.70;72.00;;;;;;5030261;28;20425;-74
2023/10/08 08:23:48;;;;;;;7.78;2.65;;;24.00;71.00;;;;;;5031546;28;20075;-75
2023/10/08 08:26:26;;;;;;;6.72;1.67;;;24.50;70.30;;;;;;5031532;28;20483;-74
2023/10/08 08:28:57;;;;;;;5.15;2.15;;;25.20;68.30;;;;;;5031426;28;20084;-76
2023/10/08 08:31:26;;;;;;;7.68;1.85;;;26.10;66.00;;;;;;5031397;28;20037;-76
2023/10/08 08:33:53;;;;;;;6.10;2.03;;;26.80;63.90;;;;;;5031762;28;20033;-78
2023/10/08 08:36:23;;;;;;;5.70;1.48;;;27.40;60.90;;;;;;5029706;28;20383;-72
2023/10/08 08:38:50;;;;;;;5.75;2.25;;;27.50;59.90;;;;;;5031135;28;20036;-72
2023/10/08 08:41:19;;;;;;;5.05;1.63;;;27.30;58.40;;;;;;5031137;28;20029;-72
2023/10/08 08:43:56;;;;;;;8.73;2.22;;;26.70;59.00;;;;;;5031251;28;20105;-74
2023/10/08 08:46:27;;;;;;;5.35;2.33;;;25.90;60.50;;;;;;5031090;28;20048;-74
2023/10/08 08:48:55;;;;;;;13.93;2.17;;;25.10;62.10;;;;;;5030977;28;20052;-74
2023/10/08 08:51:23;;;;;;;6.55;2.17;;;24.50;63.50;;;;;;5030925;28;20402;-74
2023/10/08 08:53:49;;;;;;;8.82;2.50;;;23.90;65.00;;;;;;5030884;28;20032;-75
2023/10/08 08:56:15;;;;;;;12.88;2.47;;;23.40;66.40;;;;;;5031549;28;20118;-74
2023/10/08 08:58:43;;;;;;;11.25;2.65;;;23.10;68.10;;;;;;5030783;28;20018;-75
2023/10/08 09:01:13;;;;;;;6.72;2.00;;;22.80;69.40;;;;;;5030710;28;20114;-75
2023/10/08 09:03:39;;;;;;;6.07;2.00;;;22.50;70.60;;;;;;5030765;28;20031;-75
2023/10/08 09:06:05;;;;;;;8.95;2.20;;;22.40;71.30;;;;;;5030593;28;20148;-75
2023/10/08 09:08:35;;;;;;;9.07;2.33;;;22.20;72.10;;;;;;5030597;28;20769;-74
2023/10/08 09:11:04;;;;;;;11.40;2.53;;;21.90;73.20;;;;;;5030954;28;20052;-75
2023/10/08 09:13:32;;;;;;;7.35;2.13;;;21.80;73.60;;;;;;5030795;28;20022;-73
2023/10/08 09:16:18;;;;;;;20.02;2.75;;;21.70;74.70;;;;;;5030882;28;20052;-72
2023/10/08 09:18:46;;;;;;;8.40;2.42;;;21.50;75.50;;;;;;5030259;28;20132;-74
2023/10/08 09:21:14;;;;;;;20.45;2.17;;;21.30;76.70;;;;;;5030192;28;20033;-74
2023/10/08 09:23:44;;;;;;;6.25;1.77;;;21.20;78.00;;;;;;5030410;28;20041;-73
2023/10/08 09:26:13;;;;;;;7.50;2.20;;;21.10;79.10;;;;;;5028951;28;20029;-73
2023/10/08 09:28:40;;;;;;;8.80;2.55;;;21.00;79.80;;;;;;5030057;28;20021;-73
2023/10/08 09:31:11;;;;;;;12.18;2.55;;;20.90;80.80;;;;;;5029046;28;20018;-73
2023/10/08 09:33:37;;;;;;;7.75;2.47;;;21.00;81.10;;;;;;5030298;28;20036;-72
2023/10/08 09:36:05;;;;;;;10.93;2.53;;;21.00;81.40;;;;;;5030034;28;20025;-73
2023/10/08 09:38:33;;;;;;;7.72;3.03;;;20.90;82.60;;;;;;5030021;28;20021;-72
2023/10/08 09:41:02;;;;;;;12.93;4.13;;;20.90;83.50;;;;;;5030199;28;20044;-72
2023/10/08 09:43:35;;;;;;;7.20;2.42;;;20.70;84.30;;;;;;5029931;28;20605;-72
2023/10/08 09:46:13;;;;;;;10.15;2.45;;;20.70;85.60;;;;;;5029765;28;20029;-72
2023/10/08 09:48:44;;;;;;;9.68;1.92;;;20.50;86.60;;;;;;5027371;28;20406;-72
2023/10/08 09:51:12;;;;;;;5.15;2.00;;;20.40;88.10;;;;;;5029383;28;20029;-72
2023/10/08 09:54:04;;;;;;;6.65;2.00;;;20.20;89.30;;;;;;5029362;28;20018;-73
2023/10/08 09:56:31;;;;;;;5.70;2.05;;;20.10;90.50;;;;;;5040331;28;20037;-72
2023/10/08 09:58:59;;;;;;;6.63;1.98;;;20.00;90.90;;;;;;5028006;28;20032;-73
2023/10/08 10:01:26;;;;;;;6.53;2.10;;;20.00;91.10;;;;;;5028428;28;20037;-72
2023/10/08 10:03:52;;;;;;;4.78;1.63;;;20.20;91.40;;;;;;5028306;28;20025;-72
2023/10/08 10:06:18;;;;;;;15.02;2.08;;;20.30;91.50;;;;;;5028425;28;20021;-73
2023/10/08 10:08:47;;;;;;;8.80;1.65;;;20.40;91.50;;;;;;5043383;28;20033;-73
2023/10/08 10:11:13;;;;;;;9.32;2.40;;;20.40;91.40;;;;;;5029023;28;20022;-72
2023/10/08 10:13:41;;;;;;;7.18;2.10;;;20.40;91.40;;;;;;5029424;28;20040;-73
2023/10/08 10:16:07;;;;;;;6.28;1.60;;;20.50;91.50;;;;;;5038932;28;20040;-72
2023/10/08 10:18:34;;;;;;;7.20;1.85;;;20.50;91.30;;;;;;5047373;28;20072;-72
2023/10/08 10:21:12;;;;;;;8.95;1.90;;;20.50;91.30;;;;;;5049169;28;20033;-74
2023/10/08 10:23:42;;;;;;;6.55;1.40;;;20.60;91.30;;;;;;5049351;28;20037;-74
2023/10/08 10:26:28;;;;;;;7.05;1.75;;;20.60;91.40;;;;;;5049191;28;20049;-74
2023/10/08 10:29:14;;;;;;;4.70;1.20;;;20.50;91.30;;;;;;5049159;28;20036;-72
2023/10/08 10:31:47;;;;;;;7.30;1.25;;;20.50;91.40;;;;;;5049049;28;20025;-72
2023/10/08 10:34:18;;;;;;;7.88;1.30;;;20.40;91.30;;;;;;5048994;28;20025;-73
2023/10/08 10:36:55;;;;;;;5.50;1.02;;;20.40;91.30;;;;;;5048983;28;20021;-72
2023/10/08 10:39:28;;;;;;;5.88;1.33;;;20.30;91.30;;;;;;5048808;28;20025;-72
2023/10/08 10:41:57;;;;;;;4.18;1.10;;;20.30;91.50;;;;;;5048456;28;20033;-73
2023/10/08 10:44:23;;;;;;;2.10;0.85;;;20.30;91.90;;;;;;5042448;28;20066;-73
2023/10/08 10:47:22;;;;;;;3.72;0.95;;;20.20;92.00;;;;;;5033257;28;20069;-74
2023/10/08 10:49:47;;;;;;;3.08;0.90;;;20.20;91.40;;;;;;5028628;28;20021;-74
2023/10/08 10:52:19;;;;;;;3.33;0.88;;;20.10;90.20;;;;;;5028809;28;20033;-73
2023/10/08 10:54:58;;;;;;;2.70;1.20;;;20.00;89.70;;;;;;5028701;28;20033;-73
2023/10/08 10:57:34;;;;;;;6.13;1.73;;;20.00;90.10;;;;;;5028648;28;20080;-74
2023/10/08 11:00:46;;;;;;;4.03;1.20;;;20.10;90.20;;;;;;5043914;28;20367;-73
2023/10/08 11:02:50;;;;;;;4.63;1.08;;;20.10;90.10;;;;;;5028176;28;20101;-73
2023/10/08 11:05:19;;;;;;;5.35;1.55;;;20.00;90.30;;;;;;5028383;28;20025;-73
2023/10/08 11:07:48;;;;;;;4.85;1.38;;;20.00;90.30;;;;;;5028492;28;20116;-72
2023/10/08 11:10:15;;;;;;;3.38;1.20;;;20.10;90.40;;;;;;5028582;28;20025;-73
2023/10/08 11:12:53;;;;;;;5.00;1.13;;;20.20;90.00;;;;;;5028348;28;20026;-73
2023/10/08 11:15:18;;;;;;;8.93;0.88;;;20.20;88.80;;;;;;5028442;28;20025;-73
2023/10/08 11:17:48;;;;;;;5.25;1.20;;;20.20;88.90;;;;;;5028263;28;20099;-73
2023/10/08 11:20:27;;;;;;;3.15;0.80;;;20.20;89.20;;;;;;5028484;28;20032;-73
2023/10/08 11:23:01;;;;;;;4.40;1.10;;;20.30;88.30;;;;;;5046209;28;20123;-73
2023/10/08 11:25:30;;;;;;;5.45;0.80;;;20.30;88.20;;;;;;5048310;28;20105;-73
2023/10/08 11:28:08;;;;;;;3.63;0.77;;;20.30;87.80;;;;;;5047941;28;20094;-73
2023/10/08 11:30:35;;;;;;;3.00;0.70;;;20.40;87.20;;;;;;5048492;28;20260;-72
2023/10/08 11:33:01;;;;;;;0.90;0.40;;;20.40;84.90;;;;;;5048629;28;20374;-73
2023/10/08 11:35:28;;;;;;;0.88;0.30;;;20.40;82.00;;;;;;5048280;28;20520;-73
2023/10/08 11:38:00;;;;;;;1.25;0.50;;;20.30;82.20;;;;;;5048237;28;20017;-73
2023/10/08 11:40:29;;;;;;;0.75;0.30;;;20.30;81.80;;;;;;5047198;28;20029;-72
2023/10/08 11:42:58;;;;;;;0.98;0.38;;;20.40;80.20;;;;;;5048206;28;20123;-74
2023/10/08 11:45:26;;;;;;;0.57;0.20;;;20.40;79.30;;;;;;5048134;28;20029;-73
2023/10/08 11:47:56;;;;;;;0.63;0.20;;;20.30;79.00;;;;;;5046866;28;20405;-72
2023/10/08 11:50:32;;;;;;;4.47;0.30;;;20.30;77.90;;;;;;5048283;28;20375;-72
2023/10/08 11:53:08;;;;;;;0.63;0.30;;;20.20;76.80;;;;;;5048094;28;20391;-74
2023/10/08 11:55:35;;;;;;;4.80;1.10;;;20.10;77.60;;;;;;5051051;28;20021;-73
2023/10/08 11:58:10;;;;;;;6.05;1.45;;;20.10;77.70;;;;;;5051873;28;20784;-73
2023/10/08 12:00:46;;;;;;;5.68;1.10;;;20.30;76.00;;;;;;5050596;28;20032;-73
2023/10/08 12:03:18;;;;;;;1.15;0.60;;;20.40;74.80;;;;;;5052927;28;20037;-73
2023/10/08 12:05:48;;;;;;;3.75;0.63;;;20.70;72.00;;;;;;5052094;28;20025;-73
2023/10/08 12:08:20;;;;;;;0.82;0.20;;;20.60;70.90;;;;;;5051829;28;20508;-73
2023/10/08 12:10:47;;;;;;;10.07;1.33;;;20.60;71.70;;;;;;5051711;28;20017;-73
2023/10/08 12:13:16;;;;;;;7.75;0.70;;;20.40;78.00;;;;;;5051631;28;20033;-72
2023/10/08 12:15:44;;;;;;;14.57;1.00;;;19.70;81.00;;;;;;5051639;28;20021;-73
2023/10/08 12:18:15;;;;;;;11.55;1.13;;;19.60;82.60;;;;;;5051188;28;20041;-73
2023/10/08 12:20:46;;;;;;;10.20;0.85;;;19.50;83.40;;;;;;5051624;28;20496;-72
2023/10/08 12:23:19;;;;;;;5.82;1.15;;;19.50;84.10;;;;;;5051538;28;20560;-73
2023/10/08 12:25:51;;;;;;;8.82;0.60;;;19.40;84.70;;;;;;5051706;28;20033;-73
2023/10/08 12:28:18;;;;;;;4.78;0.55;;;19.10;85.90;;;;;;5051386;28;20082;-72
2023/10/08 12:30:45;;;;;;;1.58;0.43;;;19.00;86.90;;;;;;5046968;28;20017;-73
2023/10/08 12:33:12;;;;;;;5.35;0.60;;;19.00;87.10;;;;;;5039807;28;20018;-73
2023/10/08 12:35:53;;;;;;;13.88;0.77;;;19.00;86.70;;;;;;5031210;28;20041;-72
2023/10/08 12:38:22;;;;;;;5.70;0.50;;;19.00;86.50;;;;;;5031295;28;20029;-73
2023/10/08 12:40:52;;;;;;;5.88;0.50;;;18.90;86.80;;;;;;5031351;28;20041;-73
2023/10/08 12:43:19;;;;;;;2.17;0.40;;;18.90;87.30;;;;;;5030991;28;20044;-73
2023/10/08 12:45:56;;;;;;;1.23;0.30;;;18.90;87.40;;;;;;5030979;28;20025;-73
2023/10/08 12:48:26;;;;;;;4.20;0.50;;;18.90;87.10;;;;;;5030958;28;20033;-73
2023/10/08 12:50:53;;;;;;;5.68;0.40;;;19.10;87.00;;;;;;5030995;28;20021;-73
2023/10/08 12:53:33;;;;;;;8.40;0.40;;;19.20;87.20;;;;;;5030868;28;20048;-72
2023/10/08 12:56:06;;;;;;;3.75;0.47;;;19.20;87.60;;;;;;5030826;28;20033;-72
2023/10/08 12:58:41;;;;;;;2.53;0.40;;;19.20;87.70;;;;;;5030788;28;20021;-72
2023/10/08 13:01:09;;;;;;;2.67;0.55;;;19.30;87.80;;;;;;5029488;28;20453;-72
2023/10/08 13:03:43;;;;;;;1.10;0.40;;;19.20;87.60;;;;;;5030727;28;20068;-72
2023/10/08 13:06:28;;;;;;;3.03;0.85;;;19.20;87.50;;;;;;5030513;28;20026;-71
2023/10/08 13:08:55;;;;;;;2.30;0.30;;;19.20;87.00;;;;;;5030727;28;20564;-74
2023/10/08 13:11:23;;;;;;;2.05;0.50;;;19.20;87.20;;;;;;5030228;28;20040;-75
2023/10/08 13:13:56;;;;;;;9.10;5.13;;;19.20;86.70;;;;;;5029236;28;20056;-74
2023/10/08 13:16:31;;;;;;;4.63;1.20;;;19.10;80.80;;;;;;5033734;28;20390;-74
2023/10/08 13:19:01;;;;;;;6.32;0.55;;;19.10;80.90;;;;;;5038863;28;20124;-75
2023/10/08 13:21:28;;;;;;;0.88;0.30;;;19.10;82.30;;;;;;5039556;28;20017;-75
2023/10/08 13:24:00;;;;;;;4.07;0.30;;;19.10;80.00;;;;;;5040726;28;20033;-74
2023/10/08 13:26:30;;;;;;;4.03;0.13;;;19.10;74.20;;;;;;5038886;28;20040;-74
2023/10/08 13:29:00;;;;;;;4.38;0.10;;;19.10;69.70;;;;;;5040241;28;20029;-74
2023/10/08 13:31:27;;;;;;;1.85;0.20;;;19.10;68.80;;;;;;5032675;28;20441;-74
2023/10/08 13:33:56;;;;;;;0.70;0.20;;;19.10;67.80;;;;;;5029956;28;20033;-75
2023/10/08 13:36:23;;;;;;;25.15;14.23;;;19.10;67.30;;;;;;5030221;28;20037;-74
2023/10/08 13:38:51;;;;;;;7.82;4.63;;;19.20;66.00;;;;;;5029797;28;20052;-74
2023/10/08 13:41:20;;;;;;;4.22;1.35;;;19.10;65.90;;;;;;5029877;28;20017;-75
2023/10/08 13:43:51;;;;;;;5.40;0.20;;;19.10;66.10;;;;;;5030174;28;20037;-75
2023/10/08 13:46:20;;;;;;;2.38;0.45;;;19.20;65.50;;;;;;5030048;28;20029;-76
2023/10/08 13:48:50;;;;;;;3.17;1.17;;;19.20;65.40;;;;;;5029841;28;20295;-75
2023/10/08 13:51:25;;;;;;;2.50;0.60;;;19.10;64.70;;;;;;5029736;28;20406;-75
2023/10/08 13:53:53;;;;;;;4.93;0.90;;;19.10;64.60;;;;;;5029786;28;20486;-73
2023/10/08 13:56:24;;;;;;;3.92;0.70;;;19.00;64.80;;;;;;5030226;28;20029;-74
2023/10/08 13:58:51;;;;;;;3.08;0.70;;;19.00;65.30;;;;;;5029823;28;20051;-75
2023/10/08 14:01:21;;;;;;;2.22;0.82;;;19.00;63.80;;;;;;5029579;28;20060;-74
2023/10/08 14:03:56;;;;;;;3.22;0.80;;;18.80;63.70;;;;;;5029622;28;20559;-75
2023/10/08 14:06:22;;;;;;;4.30;1.15;;;18.70;64.20;;;;;;5029440;28;20034;-74
2023/10/08 14:08:54;;;;;;;3.15;0.80;;;18.60;64.50;;;;;;5029313;28;20548;-75
2023/10/08 14:11:29;;;;;;;5.03;1.10;;;18.50;64.70;;;;;;5029366;28;20036;-75
2023/10/08 14:13:56;;;;;;;6.13;1.50;;;18.40;65.80;;;;;;5027995;28;20026;-74